EDT,Max TemperatureF,Mean TemperatureF,Min TemperatureF,Max Dew PointF,MeanDew PointF,Min DewpointF,Max Humidity, Mean Humidity, Min Humidity, Max Sea Level PressureIn, Mean Sea Level PressureIn, Min Sea Level PressureIn, Max VisibilityMiles, Mean VisibilityMiles, Min VisibilityMiles, Max Wind SpeedMPH, Mean Wind SpeedMPH, Max Gust SpeedMPH,PrecipitationIn, CloudCover, Events, WindDirDegrees
2013-7-1,70,63,55,60,57,54,100,83,66,30.11,30.05,29.95,10,7,2,16,7,22,0.74,7,Rain,59
2013-7-2,77,66,55,70,63,54,100,85,69,30.14,30.11,30.08,10,6,0,10,3,14,0.62,7,Fog-Rain-Thunderstorm,70
2013-7-3,81,72,63,72,67,63,100,85,69,30.20,30.16,30.12,10,5,0,13,3,20,0.96,6,Fog-Rain-Thunderstorm,232
2013-7-4,79,71,62,72,67,63,100,87,74,30.22,30.17,30.10,10,5,0,14,5,20,0.11,6,Fog-Rain-Thunderstorm,235
2013-7-5,82,72,62,71,67,62,100,84,67,30.18,30.13,30.07,10,7,0,14,4,20,0.43,5,Fog-Rain,231
2013-7-6,80,70,59,67,64,58,97,73,48,30.13,30.10,30.04,10,7,2,13,6,21,0.06,6,Rain,245
2013-7-7,77,69,60,70,65,59,97,83,69,30.07,30.01,29.96,10,8,1,12,3,15,0.06,4,Rain,227
2013-7-8,77,69,61,67,65,62,100,85,69,30.09,30.01,29.95,10,7,1,10,2,16,0.05,6,Rain,344
2013-7-9,83,72,61,67,63,60,100,77,54,30.11,30.05,29.97,10,5,0,12,2,14,0.00,4,Fog-Thunderstorm,160
2013-7-10,78,70,61,70,66,60,100,87,74,29.99,29.83,29.73,10,7,2,21,9,26,0.11,5,Thunderstorm,216
2013-7-11,73,62,50,68,60,51,100,77,53,30.06,29.87,29.77,10,8,1,14,4,25,0.68,5,Rain-Thunderstorm,271
2013-7-12,77,62,47,54,51,46,100,71,41,30.24,30.16,30.07,10,10,6,13,3,16,0.00,0,,63
2013-7-13,80,64,47,64,57,47,100,75,50,30.30,30.28,30.25,10,10,8,15,3,18,0.00,3,,204
2013-7-14,82,72,61,67,65,61,100,79,58,30.35,30.30,30.26,10,8,1,12,3,18,0.00,5,,238
2013-7-15,85,71,57,66,60,55,100,70,40,30.30,30.27,30.22,10,5,0,12,3,20,0.00,2,Fog,253
2013-7-16,86,71,56,67,59,55,100,71,42,30.28,30.25,30.21,10,5,0,12,3,21,0.00,2,Fog,322
2013-7-17,88,74,60,73,67,59,100,76,51,30.23,30.13,30.03,10,7,2,14,6,21,0.23,3,Rain-Thunderstorm,247
2013-7-18,83,72,61,72,67,62,100,79,58,30.09,30.05,29.95,10,4,0,16,5,25,0.41,5,Fog-Rain,235
2013-7-19,86,76,66,72,67,63,100,76,51,29.98,29.81,29.69,10,8,1,26,11,46,0.16,4,Rain-Thunderstorm,234
2013-7-20,77,67,57,67,63,54,100,73,46,29.88,29.73,29.68,10,8,2,17,7,25,0.20,6,Rain,238
2013-7-21,72,60,47,57,53,48,100,72,44,30.05,29.96,29.88,10,6,0,10,3,17,0.00,4,Fog,37
2013-7-22,79,61,42,65,49,42,100,71,41,30.05,30.00,29.84,10,5,0,10,2,15,0.01,3,Fog-Rain,215
2013-7-23,80,71,62,64,62,58,100,77,54,29.82,29.67,29.58,10,8,2,12,3,17,0.04,5,Rain,251
2013-7-24,66,52,37,64,54,39,100,81,62,30.09,29.76,29.59,10,8,2,12,5,18,0.25,7,Rain-Thunderstorm,261
2013-7-25,69,51,33,48,40,32,100,69,37,30.17,30.13,30.08,10,10,9,15,4,21,0.00,1,,64
2013-7-26,74,55,36,53,42,35,100,73,46,30.15,30.11,30.05,10,6,0,13,2,16,0.00,3,Fog,51
2013-7-27,80,60,39,59,47,39,100,70,39,30.06,30.02,29.95,10,6,0,13,3,18,0.00,3,Fog,193
2013-7-28,73,65,57,63,60,57,100,87,73,29.99,29.94,29.89,10,6,0,16,5,21,0.31,6,Fog-Rain,185
2013-7-29,71,61,50,58,54,48,100,75,49,30.11,30.03,29.98,10,6,0,18,5,22,0.01,5,Fog-Rain,237
2013-7-30,70,62,54,56,53,51,93,73,53,30.16,30.13,30.10,10,10,10,15,5,31,0.00,6,,246
2013-7-31,76,62,48,58,54,48,100,72,43,30.16,30.12,30.03,10,8,0,10,3,17,0.00,3,Fog,221